Time;durP1;ratioP1;P1;durP2;ratioP2;P2;SDS_P1;SDS_P2;PMS_P1;PMS_P2;Temp;Humidity;BMP_temperature;BMP_pressure;BME280_temperature;BME280_humidity;BME280_pressure;Samples;Min_cycle;Max_cycle;Signal;HPM_P1;HPM_P2
2023/04/05 00:04:29;;;;;;;11.43;5.60;;;20.50;60.00;;;;;;10446832;28;20585;-24
2023/04/05 00:09:31;;;;;;;7.72;4.13;;;20.40;59.90;;;;;;10440651;28;20049;-24
2023/04/05 00:14:34;;;;;;;7.32;4.25;;;20.40;59.90;;;;;;10453593;28;20081;-24
2023/04/05 00:19:36;;;;;;;8.10;4.40;;;20.30;59.70;;;;;;10437192;28;20098;-24
2023/04/05 00:24:40;;;;;;;7.63;4.35;;;20.30;59.70;;;;;;10450476;28;20045;-24
2023/04/05 00:29:44;;;;;;;6.82;4.20;;;20.30;59.50;;;;;;10450681;28;20088;-24
2023/04/05 00:34:45;;;;;;;9.05;4.57;;;20.20;59.60;;;;;;10450852;28;20138;-24
2023/04/05 00:39:47;;;;;;;6.68;3.85;;;20.20;59.60;;;;;;10459296;28;20135;-24
2023/04/05 00:44:50;;;;;;;5.30;3.47;;;20.20;59.60;;;;;;10446300;28;20052;-24
2023/04/05 00:49:52;;;;;;;6.88;3.55;;;20.10;59.80;;;;;;10447337;28;20091;-24
2023/04/05 00:54:55;;;;;;;6.65;3.30;;;20.10;59.40;;;;;;10451462;28;20040;-25
2023/04/05 01:00:00;;;;;;;6.28;3.60;;;20.10;59.60;;;;;;10455955;28;20041;-25
2023/04/05 01:05:08;;;;;;;4.95;2.70;;;20.10;59.40;;;;;;10437561;28;20088;-25
2023/04/05 01:10:13;;;;;;;7.60;2.90;;;20.00;59.30;;;;;;10447872;28;20056;-27
2023/04/05 01:15:17;;;;;;;3.63;2.45;;;20.00;59.40;;;;;;10461521;28;20432;-26
2023/04/05 01:20:21;;;;;;;4.50;2.50;;;20.00;59.40;;;;;;10442261;28;20135;-25
2023/04/05 01:25:44;;;;;;;5.40;3.03;;;19.90;59.40;;;;;;10439709;28;20045;-24
2023/04/05 01:30:52;;;;;;;4.90;2.80;;;19.90;59.30;;;;;;10424326;28;20147;-25
2023/04/05 01:36:04;;;;;;;4.00;2.72;;;19.90;59.20;;;;;;10443172;28;20136;-24
2023/04/05 01:41:06;;;;;;;6.50;2.90;;;19.90;59.30;;;;;;10445993;28;20469;-24
2023/04/05 01:46:09;;;;;;;3.58;2.53;;;19.80;59.40;;;;;;10464695;28;20075;-25
2023/04/05 01:51:11;;;;;;;6.53;2.88;;;19.80;59.40;;;;;;10452512;28;20049;-25
2023/04/05 01:56:13;;;;;;;3.65;2.30;;;19.80;59.80;;;;;;10449421;28;20482;-24
2023/04/05 02:01:16;;;;;;;4.72;2.60;;;19.70;59.60;;;;;;10454948;28;20128;-24
2023/04/05 02:06:18;;;;;;;3.95;2.20;;;19.60;59.50;;;;;;10452358;28;20497;-26
2023/04/05 02:11:20;;;;;;;3.92;2.28;;;19.70;59.60;;;;;;10458543;28;20049;-24
2023/04/05 02:16:25;;;;;;;3.58;1.88;;;19.60;59.50;;;;;;10445386;28;20406;-24
2023/04/05 02:21:27;;;;;;;4.60;2.20;;;19.60;59.50;;;;;;10453711;28;20049;-25
2023/04/05 02:26:29;;;;;;;3.67;2.08;;;19.60;59.50;;;;;;10460968;28;20127;-25
2023/04/05 02:31:33;;;;;;;5.05;2.42;;;19.50;59.40;;;;;;10461099;28;20072;-25
2023/04/05 02:36:35;;;;;;;2.92;1.70;;;19.50;59.40;;;;;;10456735;28;20466;-24
2023/04/05 02:41:37;;;;;;;4.18;2.00;;;19.40;59.20;;;;;;10462230;28;20425;-24
2023/04/05 02:46:41;;;;;;;3.22;1.98;;;19.50;59.30;;;;;;10456950;28;20081;-26
2023/04/05 02:51:42;;;;;;;4.25;1.98;;;19.40;59.30;;;;;;10450405;28;20061;-24
2023/04/05 02:56:45;;;;;;;3.38;1.83;;;19.40;59.30;;;;;;10450040;28;20060;-24
2023/04/05 03:01:48;;;;;;;;;;;19.40;59.20;;;;;;10444248;28;20079;-24
2023/04/05 03:06:51;;;;;;;2.60;1.80;;;19.40;59.10;;;;;;10446417;28;19979;-24
2023/04/05 03:11:52;;;;;;;3.55;2.03;;;19.30;59.00;;;;;;10435485;28;20463;-24
2023/04/05 03:16:56;;;;;;;2.50;1.80;;;19.30;59.20;;;;;;10454073;28;20479;-24
2023/04/05 03:21:58;;;;;;;5.10;1.88;;;19.30;59.10;;;;;;10434622;28;20133;-24
2023/04/05 03:27:03;;;;;;;2.78;1.65;;;19.20;59.10;;;;;;10446615;28;20041;-24
2023/04/05 03:32:10;;;;;;;3.05;1.58;;;19.30;59.10;;;;;;10453381;28;20478;-25
2023/04/05 03:37:12;;;;;;;2.13;1.73;;;19.20;59.00;;;;;;10441522;28;20725;-24
2023/04/05 03:42:15;;;;;;;3.25;1.77;;;19.20;59.00;;;;;;10439189;28;20100;-24
2023/04/05 03:47:18;;;;;;;3.05;2.00;;;19.10;58.90;;;;;;10448124;28;20095;-24
2023/04/05 03:52:20;;;;;;;2.58;1.50;;;19.10;58.80;;;;;;10456969;28;20152;-24
2023/04/05 03:57:23;;;;;;;1.90;1.40;;;19.10;59.00;;;;;;10454666;28;20041;-24
2023/04/05 04:02:26;;;;;;;3.83;1.88;;;19.10;58.70;;;;;;10445824;28;20493;-24
2023/04/05 04:07:28;;;;;;;2.40;1.50;;;19.10;58.70;;;;;;10437605;28;20064;-24
2023/04/05 04:12:30;;;;;;;3.20;1.75;;;19.10;58.50;;;;;;10452907;28;20140;-23
2023/04/05 04:17:34;;;;;;;2.55;1.83;;;19.10;58.00;;;;;;10464088;28;20053;-23
2023/04/05 04:22:39;;;;;;;2.65;1.60;;;19.10;57.80;;;;;;10453240;28;20460;-24
2023/04/05 04:27:42;;;;;;;3.17;1.25;;;19.20;57.60;;;;;;10452241;28;20077;-24
2023/04/05 04:32:52;;;;;;;1.10;0.70;;;19.10;57.80;;;;;;10465555;28;20049;-24
2023/04/05 04:37:59;;;;;;;1.48;0.95;;;19.10;58.10;;;;;;10451829;28;20056;-22
2023/04/05 04:43:01;;;;;;;1.98;1.10;;;19.20;58.10;;;;;;10430596;28;20148;-24
2023/04/05 04:48:05;;;;;;;2.50;1.00;;;19.20;58.20;;;;;;10447601;28;20473;-24
2023/04/05 04:53:06;;;;;;;2.25;1.33;;;19.20;58.10;;;;;;10435979;28;20041;-25
2023/04/05 04:58:10;;;;;;;1.70;0.60;;;19.20;58.30;;;;;;10445700;28;20143;-24
2023/04/05 05:03:15;;;;;;;1.35;1.05;;;19.20;58.20;;;;;;10442031;28;20144;-24
2023/04/05 05:08:17;;;;;;;2.13;0.85;;;19.20;58.40;;;;;;10438625;28;20040;-26
2023/04/05 05:13:19;;;;;;;2.13;1.02;;;19.20;58.60;;;;;;10456190;28;20060;-24
2023/04/05 05:18:22;;;;;;;2.45;1.23;;;19.20;58.70;;;;;;10449626;28;20053;-25
2023/04/05 05:23:24;;;;;;;1.83;1.10;;;19.10;58.80;;;;;;10449544;28;20500;-24
2023/04/05 05:28:26;;;;;;;3.60;1.23;;;19.10;58.90;;;;;;10450542;28;20045;-24
2023/04/05 05:33:29;;;;;;;1.77;1.10;;;19.20;58.80;;;;;;10446575;28;20465;-24
2023/04/05 05:38:31;;;;;;;1.00;0.70;;;19.10;58.80;;;;;;10440957;28;20095;-23
2023/04/05 05:43:33;;;;;;;2.05;1.02;;;19.10;58.80;;;;;;10433459;28;20142;-23
2023/04/05 05:48:36;;;;;;;1.85;0.98;;;19.10;58.80;;;;;;10438281;28;20076;-25
2023/04/05 05:53:39;;;;;;;1.13;0.77;;;19.10;59.00;;;;;;10431174;28;20742;-25
2023/04/05 05:58:41;;;;;;;1.85;1.10;;;19.00;59.30;;;;;;10446956;28;20092;-23
2023/04/05 06:15:27;;;;;;;1.77;1.00;;;19.20;58.20;;;;;;10390122;27;4814193;-24
2023/04/05 06:20:29;;;;;;;0.98;0.70;;;19.10;59.00;;;;;;10517179;28;20127;-23
2023/04/05 06:25:31;;;;;;;1.00;0.88;;;19.10;59.00;;;;;;10517856;28;20044;-27
2023/04/05 06:30:34;;;;;;;0.70;0.60;;;19.10;59.20;;;;;;10510805;28;20049;-23
2023/04/05 06:35:36;;;;;;;1.33;0.70;;;19.10;59.10;;;;;;10510179;28;20536;-26
2023/04/05 06:40:38;;;;;;;1.08;0.70;;;19.10;59.00;;;;;;10515389;28;20102;-24
2023/04/05 06:45:42;;;;;;;;;;;19.00;59.40;;;;;;10510617;28;20048;-24
2023/04/05 06:50:44;;;;;;;2.25;1.10;;;18.90;59.50;;;;;;10504515;28;20705;-25
2023/04/05 06:55:49;;;;;;;2.60;1.35;;;18.90;59.90;;;;;;10504792;28;20048;-25
2023/04/05 07:00:52;;;;;;;3.03;1.30;;;18.90;59.70;;;;;;10499700;28;20147;-24
2023/04/05 07:05:57;;;;;;;1.80;1.10;;;18.90;59.70;;;;;;10495540;28;20144;-25
2023/04/05 07:10:59;;;;;;;2.85;1.63;;;19.10;59.70;;;;;;10523182;28;20149;-24
2023/04/05 07:16:03;;;;;;;5.50;1.80;;;19.00;58.90;;;;;;10503737;28;20481;-23
2023/04/05 07:21:05;;;;;;;4.72;2.40;;;18.20;61.30;;;;;;10519879;28;20071;-24
2023/04/05 07:26:07;;;;;;;4.28;2.20;;;18.00;61.60;;;;;;10477603;28;20144;-26
2023/04/05 07:31:10;;;;;;;8.82;3.75;;;18.00;62.00;;;;;;10485620;28;20406;-23
2023/04/05 07:36:12;;;;;;;9.27;2.88;;;17.80;63.10;;;;;;10480282;28;20080;-23
2023/04/05 07:41:15;;;;;;;8.50;3.47;;;17.70;63.70;;;;;;10484809;28;20040;-24
2023/04/05 07:46:19;;;;;;;7.60;2.88;;;17.80;64.00;;;;;;10481334;28;20056;-24
2023/04/05 07:51:21;;;;;;;9.95;4.55;;;17.80;63.40;;;;;;10473178;28;20155;-24
2023/04/05 07:56:23;;;;;;;5.82;3.60;;;17.90;63.70;;;;;;10477250;28;20693;-24
2023/04/05 08:01:27;;;;;;;6.95;3.10;;;18.00;63.50;;;;;;10466689;28;20214;-23
2023/04/05 08:06:30;;;;;;;4.43;2.67;;;18.30;61.80;;;;;;10476158;28;20053;-23
2023/04/05 08:11:32;;;;;;;3.38;1.90;;;18.80;59.30;;;;;;10486499;28;20043;-25
2023/04/05 08:16:35;;;;;;;2.28;1.30;;;19.00;58.50;;;;;;10484249;28;20083;-24
2023/04/05 08:21:37;;;;;;;2.38;1.50;;;19.10;58.30;;;;;;10477429;28;20121;-25
2023/04/05 08:26:40;;;;;;;5.90;1.38;;;19.00;58.30;;;;;;10480285;28;20502;-24
2023/04/05 08:31:43;;;;;;;5.25;1.27;;;19.20;58.00;;;;;;10484575;28;20054;-25
2023/04/05 08:36:45;;;;;;;3.80;1.40;;;19.20;57.90;;;;;;10468346;28;20114;-25
2023/04/05 08:41:56;;;;;;;3.70;1.45;;;19.20;57.80;;;;;;10483195;28;20063;-25
2023/04/05 08:47:00;;;;;;;5.60;1.85;;;19.20;57.80;;;;;;10479941;28;20051;-24
2023/04/05 08:52:04;;;;;;;4.03;1.65;;;19.00;58.00;;;;;;10464129;28;20098;-22
2023/04/05 08:57:07;;;;;;;4.88;1.70;;;19.10;57.70;;;;;;10485117;28;20044;-25
2023/04/05 09:02:16;;;;;;;2.75;1.55;;;19.20;57.90;;;;;;10477441;28;20079;-23
2023/04/05 09:07:23;;;;;;;2.50;1.70;;;19.40;57.00;;;;;;10490648;28;20045;-25
2023/04/05 09:12:39;;;;;;;2.20;1.25;;;19.40;56.90;;;;;;10498172;28;20044;-23
2023/04/05 09:17:50;;;;;;;2.70;1.02;;;19.40;56.70;;;;;;10498076;28;20079;-24
2023/04/05 09:23:05;;;;;;;4.50;1.80;;;19.40;56.70;;;;;;10486834;28;20079;-24
2023/04/05 09:28:41;;;;;;;2.15;1.30;;;19.40;56.70;;;;;;10483954;28;20104;-23
2023/04/05 09:33:48;;;;;;;2.00;1.10;;;19.50;56.50;;;;;;10490329;28;20227;-25
2023/04/05 09:38:50;;;;;;;2.75;1.48;;;19.60;56.40;;;;;;10510973;28;20091;-24
2023/04/05 09:43:52;;;;;;;2.50;1.60;;;19.50;56.40;;;;;;10476945;28;20095;-24
2023/04/05 09:48:56;;;;;;;4.85;2.22;;;19.30;56.70;;;;;;10471345;28;20136;-23
2023/04/05 09:53:59;;;;;;;3.20;1.98;;;17.90;60.00;;;;;;10470538;28;20056;-24
2023/04/05 09:59:03;;;;;;;3.22;1.63;;;19.30;57.30;;;;;;10458874;28;20122;-25
2023/04/05 10:04:06;;;;;;;4.28;1.52;;;19.50;56.60;;;;;;10464451;28;20045;-24
2023/04/05 10:09:10;;;;;;;3.38;1.83;;;19.60;56.40;;;;;;10466893;28;20044;-23
2023/04/05 10:14:12;;;;;;;4.28;1.75;;;19.60;56.30;;;;;;10486222;28;20516;-23
2023/04/05 10:19:22;;;;;;;3.83;1.33;;;19.70;56.20;;;;;;10477642;28;20037;-24
2023/04/05 10:24:35;;;;;;;2.25;1.30;;;19.70;56.30;;;;;;10469973;28;20045;-23
2023/04/05 10:29:46;;;;;;;2.05;1.08;;;19.60;56.70;;;;;;10470541;28;20132;-23
2023/04/05 10:34:57;;;;;;;9.82;5.90;;;19.70;56.30;;;;;;10473877;28;20143;-24
2023/04/05 10:40:03;;;;;;;3.42;1.60;;;19.70;56.30;;;;;;10480129;28;20704;-24
2023/04/05 10:45:10;;;;;;;4.30;2.10;;;18.70;59.90;;;;;;10466763;28;20045;-24
2023/04/05 10:50:21;;;;;;;8.95;5.68;;;18.50;61.10;;;;;;10461859;28;20044;-26
2023/04/05 10:55:24;;;;;;;11.23;6.65;;;19.20;58.10;;;;;;10459434;28;20062;-25
2023/04/05 11:00:26;;;;;;;7.18;4.05;;;18.70;57.30;;;;;;10470118;28;20141;-24
2023/04/05 11:05:34;;;;;;;9.88;6.82;;;18.40;57.40;;;;;;10482958;28;20320;-24
2023/04/05 11:10:38;;;;;;;2.58;1.80;;;17.20;61.70;;;;;;10474545;28;20074;-24
2023/04/05 11:15:40;;;;;;;3.40;1.60;;;18.80;60.90;;;;;;10505148;28;20145;-24
2023/04/05 11:20:45;;;;;;;;;;;19.60;57.60;;;;;;10486671;28;20462;-25
2023/04/05 11:25:50;;;;;;;10.65;6.75;;;19.10;59.10;;;;;;10476835;28;20006;-24
2023/04/05 11:30:55;;;;;;;8.27;4.57;;;18.80;50.10;;;;;;10493751;28;20473;-24
2023/04/05 11:36:02;;;;;;;2.20;1.60;;;18.50;58.90;;;;;;10485475;28;20052;-24
2023/04/05 11:41:12;;;;;;;3.38;1.80;;;18.20;62.50;;;;;;10486561;28;20790;-24
2023/04/05 11:46:14;;;;;;;3.53;1.40;;;19.20;58.90;;;;;;10475718;28;20594;-23
2023/04/05 11:51:22;;;;;;;4.30;1.80;;;19.40;57.70;;;;;;10470869;28;20053;-24
2023/04/05 11:56:24;;;;;;;4.25;1.30;;;19.50;57.90;;;;;;10476229;28;20041;-24
2023/04/05 12:01:27;;;;;;;5.18;3.22;;;19.80;57.00;;;;;;10475339;28;20053;-24
2023/04/05 12:06:30;;;;;;;;;;;19.60;58.30;;;;;;10485789;28;20449;-25
2023/04/05 12:11:32;;;;;;;4.50;2.63;;;18.10;52.30;;;;;;10487030;28;20007;-24
2023/04/05 12:16:34;;;;;;;4.55;2.00;;;18.80;60.60;;;;;;10483008;28;20136;-25
2023/04/05 12:21:37;;;;;;;6.78;2.53;;;19.60;57.30;;;;;;10471060;28;20051;-24
2023/04/05 12:26:39;;;;;;;27.13;15.02;;;19.10;61.40;;;;;;10480550;28;20554;-24
2023/04/05 12:31:42;;;;;;;25.10;13.38;;;16.50;47.70;;;;;;10486772;28;20057;-24
2023/04/05 12:36:47;;;;;;;27.55;14.73;;;15.70;62.50;;;;;;10470081;28;20045;-24
2023/04/05 12:41:59;;;;;;;6.32;3.00;;;15.20;49.30;;;;;;10484532;28;20072;-25
2023/04/05 12:47:03;;;;;;;24.02;12.70;;;18.20;70.00;;;;;;10479843;28;20053;-22
2023/04/05 12:52:07;;;;;;;9.38;5.03;;;16.00;59.70;;;;;;10483921;28;20491;-24
2023/04/05 12:57:11;;;;;;;35.05;15.50;;;16.70;58.40;;;;;;10483501;28;20053;-25
2023/04/05 13:02:15;;;;;;;9.80;4.70;;;15.80;50.10;;;;;;10491771;28;20055;-24
2023/04/05 13:07:18;;;;;;;33.88;15.77;;;17.30;73.10;;;;;;10469418;28;20098;-24
2023/04/05 13:12:20;;;;;;;24.63;13.00;;;16.40;48.10;;;;;;10466395;28;20148;-24
2023/04/05 13:17:21;;;;;;;23.43;11.87;;;16.90;51.20;;;;;;10471039;28;20604;-25
2023/04/05 13:22:25;;;;;;;19.17;8.77;;;16.60;52.90;;;;;;10475187;28;20447;-24
2023/04/05 13:27:27;;;;;;;6.03;3.63;;;17.20;78.60;;;;;;10496743;28;20082;-25
2023/04/05 13:32:29;;;;;;;7.25;4.15;;;18.70;60.00;;;;;;10477278;28;20060;-24
2023/04/05 13:37:32;;;;;;;25.83;14.02;;;19.60;66.30;;;;;;10483047;28;20079;-25
2023/04/05 13:42:34;;;;;;;11.75;4.07;;;18.40;58.40;;;;;;10495486;28;20048;-24
2023/04/05 13:47:36;;;;;;;7.25;4.07;;;19.50;69.00;;;;;;10474789;28;20139;-24
2023/04/05 13:52:39;;;;;;;17.05;7.65;;;20.50;62.70;;;;;;10460430;28;20084;-24
2023/04/05 13:57:41;;;;;;;9.85;4.38;;;20.20;52.10;;;;;;10463093;28;20048;-24
2023/04/05 14:02:44;;;;;;;12.63;5.68;;;20.40;65.00;;;;;;10474151;28;20080;-24
2023/04/05 14:07:49;;;;;;;23.05;12.57;;;20.50;55.80;;;;;;10475290;28;20455;-25
2023/04/05 14:12:51;;;;;;;2.92;1.92;;;19.90;58.40;;;;;;10472650;28;20056;-25
2023/04/05 14:17:53;;;;;;;;;;;20.90;58.60;;;;;;10483079;28;20045;-23
2023/04/05 14:22:56;;;;;;;11.63;5.20;;;20.80;57.20;;;;;;10481494;28;20352;-25
2023/04/05 14:27:58;;;;;;;8.60;3.95;;;21.50;54.50;;;;;;10449380;28;20428;-25
2023/04/05 14:33:00;;;;;;;11.07;4.78;;;21.70;52.60;;;;;;10485435;28;20592;-25
2023/04/05 14:38:03;;;;;;;7.88;4.75;;;21.60;51.90;;;;;;10490554;28;20071;-24
2023/04/05 14:43:05;;;;;;;22.30;12.35;;;21.80;51.80;;;;;;10496707;28;20127;-24
2023/04/05 14:48:07;;;;;;;7.20;4.47;;;21.70;46.40;;;;;;10467302;28;20137;-24
2023/04/05 14:53:10;;;;;;;8.88;5.18;;;22.20;49.70;;;;;;10477583;28;20049;-24
2023/04/05 14:58:12;;;;;;;6.65;3.13;;;22.30;49.70;;;;;;10487008;28;20088;-24
2023/04/05 15:03:14;;;;;;;5.20;3.83;;;22.50;50.10;;;;;;10471252;28;20088;-24
2023/04/05 15:08:17;;;;;;;7.80;4.88;;;22.40;50.40;;;;;;10478320;28;20080;-25
2023/04/05 15:13:20;;;;;;;5.30;3.15;;;22.60;49.30;;;;;;10475937;28;20060;-25
2023/04/05 15:18:22;;;;;;;6.55;3.58;;;22.70;49.10;;;;;;10474660;28;20074;-24
2023/04/05 15:23:25;;;;;;;6.72;3.75;;;22.80;49.50;;;;;;10476799;28;20144;-25
2023/04/05 15:28:27;;;;;;;7.78;3.80;;;23.00;48.30;;;;;;10487143;28;20072;-25
2023/04/05 15:33:29;;;;;;;9.60;3.65;;;22.90;48.50;;;;;;10475186;28;20064;-24
2023/04/05 15:38:32;;;;;;;8.73;4.13;;;23.10;48.00;;;;;;10477935;28;20044;-26
2023/04/05 15:43:34;;;;;;;6.30;4.20;;;23.20;47.60;;;;;;10475358;28;20132;-23
2023/04/05 15:48:35;;;;;;;;;;;23.20;47.90;;;;;;10473765;28;20073;-25
2023/04/05 15:53:39;;;;;;;6.77;3.87;;;23.10;47.80;;;;;;10477134;28;20214;-26
2023/04/05 15:58:41;;;;;;;5.75;3.70;;;23.30;47.40;;;;;;10497769;28;20044;-27
2023/04/05 16:03:43;;;;;;;5.13;3.40;;;23.30;46.80;;;;;;10488395;28;20049;-24
2023/04/05 16:08:46;;;;;;;;;;;23.20;46.70;;;;;;10473548;28;20044;-24
2023/04/05 16:13:49;;;;;;;4.38;3.08;;;23.40;46.60;;;;;;10474252;28;20678;-24
2023/04/05 16:18:51;;;;;;;9.20;5.55;;;23.50;46.60;;;;;;10477709;28;20051;-26
2023/04/05 16:23:55;;;;;;;;;;;23.50;46.70;;;;;;10473553;28;20076;-25
2023/04/05 16:28:57;;;;;;;7.60;3.13;;;23.60;46.50;;;;;;10471041;28;19931;-25
2023/04/05 16:33:59;;;;;;;4.30;2.70;;;23.60;46.70;;;;;;10475783;28;20154;-25
2023/04/05 16:39:02;;;;;;;6.15;2.80;;;23.70;47.30;;;;;;10492500;28;20080;-25
2023/04/05 16:44:04;;;;;;;4.40;2.90;;;23.80;47.80;;;;;;10484106;28;20052;-24
2023/04/05 16:49:06;;;;;;;5.95;2.88;;;23.90;47.80;;;;;;10471662;28;20555;-27
2023/04/05 16:54:09;;;;;;;4.97;2.47;;;23.80;47.90;;;;;;10483946;28;20056;-24
2023/04/05 16:59:11;;;;;;;6.53;3.47;;;23.90;47.80;;;;;;10469529;28;20073;-25
2023/04/05 17:04:13;;;;;;;;;;;23.90;47.60;;;;;;10467608;28;20071;-25
2023/04/05 17:09:16;;;;;;;5.40;3.43;;;24.00;47.40;;;;;;10476786;28;19921;-25
2023/04/05 17:14:18;;;;;;;7.65;3.83;;;24.00;47.50;;;;;;10469656;28;20060;-25
2023/04/05 17:19:20;;;;;;;7.97;3.40;;;24.00;47.60;;;;;;10473363;28;20044;-25
2023/04/05 17:24:24;;;;;;;;;;;23.80;47.60;;;;;;10480671;28;20397;-25
2023/04/05 17:29:26;;;;;;;11.25;3.97;;;23.90;47.90;;;;;;10461533;28;20371;-25
2023/04/05 17:34:28;;;;;;;;;;;24.00;47.60;;;;;;10464750;28;20576;-26
2023/04/05 17:39:31;;;;;;;7.93;3.73;;;23.90;47.70;;;;;;10485404;28;20074;-28
2023/04/05 17:44:33;;;;;;;7.85;3.45;;;23.90;48.00;;;;;;10487888;28;20129;-26
2023/04/05 17:49:36;;;;;;;6.00;3.30;;;24.20;51.20;;;;;;10480385;28;20139;-25
2023/04/05 17:54:39;;;;;;;3.58;2.90;;;23.90;58.20;;;;;;10484703;28;20257;-24
2023/04/05 17:59:41;;;;;;;2.75;2.30;;;24.10;54.20;;;;;;10468982;28;20671;-26
2023/04/05 18:04:43;;;;;;;7.15;2.97;;;24.10;54.30;;;;;;10473540;28;20040;-26
2023/04/05 18:09:47;;;;;;;14.23;4.78;;;24.10;55.40;;;;;;10461618;28;20084;-25
2023/04/05 18:14:50;;;;;;;13.48;4.70;;;24.10;55.50;;;;;;10476973;28;20064;-26
2023/04/05 18:19:52;;;;;;;15.93;5.43;;;24.00;56.10;;;;;;10486155;28;20053;-24
2023/04/05 18:24:55;;;;;;;9.60;5.13;;;23.90;54.40;;;;;;10469533;28;20401;-23
2023/04/05 18:29:58;;;;;;;16.13;5.60;;;23.70;52.30;;;;;;10484563;28;20106;-26
2023/04/05 18:35:00;;;;;;;15.18;4.65;;;23.70;52.10;;;;;;10475497;28;20717;-26
2023/04/05 18:40:04;;;;;;;11.15;3.67;;;23.60;52.00;;;;;;10483899;28;20558;-25
2023/04/05 18:45:06;;;;;;;9.88;3.90;;;23.50;52.00;;;;;;10461620;28;20149;-31
2023/04/05 18:50:09;;;;;;;12.85;3.75;;;23.50;52.00;;;;;;10469390;28;20127;-27
2023/04/05 18:55:14;;;;;;;8.98;3.75;;;23.40;51.90;;;;;;10469673;28;20084;-26
2023/04/05 19:00:16;;;;;;;9.23;3.63;;;23.40;52.10;;;;;;10484600;28;20052;-25
2023/04/05 19:05:18;;;;;;;10.80;3.45;;;23.40;52.10;;;;;;10474562;28;20055;-25
2023/04/05 19:10:21;;;;;;;;;;;23.30;52.30;;;;;;10479643;28;20087;-27
2023/04/05 19:15:23;;;;;;;12.10;6.75;;;23.30;52.20;;;;;;10468970;28;20025;-25
2023/04/05 19:20:25;;;;;;;12.75;4.78;;;23.30;52.50;;;;;;10464715;28;20044;-26
2023/04/05 19:25:28;;;;;;;10.30;3.08;;;23.20;52.70;;;;;;10468662;28;20041;-25
2023/04/05 19:30:30;;;;;;;8.95;3.50;;;23.20;52.60;;;;;;10476843;28;20040;-24
2023/04/05 19:35:32;;;;;;;;;;;23.10;52.60;;;;;;10476331;28;20049;-26
2023/04/05 19:40:37;;;;;;;6.90;2.55;;;23.10;52.70;;;;;;10494281;28;19924;-27
2023/04/05 19:45:39;;;;;;;6.90;2.80;;;23.10;52.50;;;;;;10474631;28;20079;-25
2023/04/05 19:50:48;;;;;;;8.98;3.08;;;23.00;52.60;;;;;;10482585;28;20413;-26
2023/04/05 19:55:51;;;;;;;11.23;2.85;;;22.90;52.60;;;;;;10477759;28;20139;-24
2023/04/05 20:00:54;;;;;;;8.18;2.67;;;22.90;52.70;;;;;;10473471;28;20053;-25
2023/04/05 20:06:05;;;;;;;10.23;3.38;;;22.90;52.70;;;;;;10482179;28;20117;-26
2023/04/05 20:11:10;;;;;;;7.63;2.95;;;22.90;52.80;;;;;;10476448;28;20673;-25
2023/04/05 20:16:14;;;;;;;12.05;3.15;;;22.80;53.40;;;;;;10480369;28;20652;-25
2023/04/05 20:21:16;;;;;;;8.98;2.78;;;22.70;53.00;;;;;;10478514;28;20052;-25
2023/04/05 20:26:25;;;;;;;6.43;2.15;;;22.70;53.10;;;;;;10488103;28;20047;-24
2023/04/05 20:31:28;;;;;;;7.80;2.53;;;22.70;53.00;;;;;;10474710;28;20049;-24
2023/04/05 20:36:33;;;;;;;8.00;2.70;;;22.60;53.10;;;;;;10478185;28;20064;-25
2023/04/05 20:41:36;;;;;;;11.27;3.13;;;22.60;53.30;;;;;;10489743;28;20931;-24
2023/04/05 20:46:38;;;;;;;6.35;2.38;;;22.50;53.40;;;;;;10479949;28;20089;-29
2023/04/05 20:51:40;;;;;;;7.93;2.38;;;22.50;53.50;;;;;;10470695;28;20135;-25
2023/04/05 20:56:44;;;;;;;8.63;2.50;;;22.40;53.60;;;;;;10480514;28;20122;-25
2023/04/05 21:01:47;;;;;;;5.68;2.22;;;22.30;53.80;;;;;;10473616;28;20070;-23
2023/04/05 21:06:49;;;;;;;5.85;2.47;;;22.30;54.10;;;;;;10468910;28;20065;-33
2023/04/05 21:11:52;;;;;;;7.03;4.03;;;22.20;54.20;;;;;;10474113;28;20052;-25
2023/04/05 21:16:54;;;;;;;10.48;4.35;;;22.20;54.30;;;;;;10474197;28;20095;-24
2023/04/05 21:21:56;;;;;;;;;;;22.10;54.30;;;;;;10480811;28;20083;-25
2023/04/05 21:27:00;;;;;;;5.77;2.63;;;22.10;54.40;;;;;;10470736;28;19978;-25
2023/04/05 21:32:02;;;;;;;5.22;3.20;;;22.00;54.60;;;;;;10472361;28;20041;-25
2023/04/05 21:37:03;;;;;;;7.53;2.70;;;22.00;54.70;;;;;;10471088;28;20428;-26
2023/04/05 21:42:07;;;;;;;8.18;3.35;;;22.00;54.70;;;;;;10480906;28;20048;-26
2023/04/05 21:47:09;;;;;;;14.75;4.10;;;21.90;54.80;;;;;;10471127;28;20210;-24
2023/04/05 21:52:10;;;;;;;5.45;2.95;;;21.90;54.90;;;;;;10472815;28;20485;-25
2023/04/05 21:57:14;;;;;;;5.82;2.67;;;21.80;55.00;;;;;;10481966;28;20048;-24
2023/04/05 22:02:16;;;;;;;5.05;2.28;;;21.80;55.00;;;;;;10486309;28;20661;-25
2023/04/05 22:07:18;;;;;;;7.32;2.65;;;21.70;55.20;;;;;;10478594;28;20045;-26
2023/04/05 22:12:21;;;;;;;5.95;3.03;;;21.60;55.40;;;;;;10458526;28;20568;-25
2023/04/05 22:17:23;;;;;;;11.27;4.55;;;21.60;55.40;;;;;;10483065;28;20520;-25
2023/04/05 22:22:25;;;;;;;5.53;2.97;;;21.60;55.50;;;;;;10469697;28;20447;-24
2023/04/05 22:27:29;;;;;;;6.88;3.30;;;21.50;55.60;;;;;;10473500;28;20068;-26
2023/04/05 22:32:31;;;;;;;10.07;2.80;;;21.50;55.40;;;;;;10473440;28;20052;-25
2023/04/05 22:37:35;;;;;;;;;;;21.50;55.50;;;;;;10467169;28;20439;-24
2023/04/05 22:42:40;;;;;;;3.65;2.20;;;21.40;55.60;;;;;;10488729;28;19971;-24
2023/04/05 22:47:42;;;;;;;4.15;2.28;;;21.40;55.70;;;;;;10473700;28;20136;-24
2023/04/05 22:52:44;;;;;;;8.15;3.38;;;21.30;55.70;;;;;;10476806;28;20048;-24
2023/04/05 22:57:48;;;;;;;;;;;21.30;56.30;;;;;;10479992;28;20063;-23
2023/04/05 23:02:50;;;;;;;5.18;2.45;;;21.30;55.70;;;;;;10482363;28;20430;-25
2023/04/05 23:07:52;;;;;;;3.90;2.03;;;21.20;55.80;;;;;;10472211;28;20520;-24
2023/04/05 23:12:55;;;;;;;;;;;21.20;56.00;;;;;;10485000;28;20492;-23
2023/04/05 23:17:57;;;;;;;3.85;2.03;;;21.20;56.00;;;;;;10476032;28;19925;-24
2023/04/05 23:23:00;;;;;;;5.25;2.00;;;21.10;56.20;;;;;;10483775;28;20097;-24
2023/04/05 23:28:03;;;;;;;5.88;2.45;;;21.00;56.10;;;;;;10472387;28;20477;-26
2023/04/05 23:33:05;;;;;;;5.80;2.58;;;21.00;56.20;;;;;;10469041;28;20091;-24
2023/04/05 23:38:07;;;;;;;7.93;1.90;;;21.00;56.40;;;;;;10475783;28;20648;-25
2023/04/05 23:43:10;;;;;;;2.80;2.08;;;20.90;56.40;;;;;;10484159;28;20051;-23
2023/04/05 23:48:12;;;;;;;4.10;1.90;;;20.90;56.60;;;;;;10481083;28;20068;-26
2023/04/05 23:53:14;;;;;;;3.08;2.10;;;20.80;56.70;;;;;;10478053;28;20136;-24
2023/04/05 23:58:17;;;;;;;4.88;1.85;;;20.80;56.90;;;;;;10481617;28;20052;-24
